sensor_id;sensor_type;location;lat;lon;timestamp;pressure;altitude;pressure_sealevel;temperature;humidity
52653;BME280;39353;42.864;12.014;2023-11-21T00:01:58;96905.96;;;20.97;56.05
52653;BME280;39353;42.864;12.014;2023-11-21T00:04:25;96904.87;;;20.97;55.80
52653;BME280;39353;42.864;12.014;2023-11-21T00:06:55;96902.23;;;20.97;55.99
52653;BME280;39353;42.864;12.014;2023-11-21T00:09:22;96893.11;;;20.96;55.90
52653;BME280;39353;42.864;12.014;2023-11-21T00:11:49;96898.44;;;20.95;56.00
52653;BME280;39353;42.864;12.014;2023-11-21T00:14:16;96892.80;;;20.94;55.96
52653;BME280;39353;42.864;12.014;2023-11-21T00:16:42;96888.61;;;20.94;55.96
52653;BME280;39353;42.864;12.014;2023-11-21T00:19:09;96895.96;;;20.94;55.86
52653;BME280;39353;42.864;12.014;2023-11-21T00:21:36;96891.73;;;20.93;55.99
52653;BME280;39353;42.864;12.014;2023-11-21T00:24:03;96894.05;;;20.93;55.97
52653;BME280;39353;42.864;12.014;2023-11-21T00:26:30;96890.31;;;20.92;56.05
52653;BME280;39353;42.864;12.014;2023-11-21T00:29:01;96890.54;;;20.90;56.01
52653;BME280;39353;42.864;12.014;2023-11-21T00:31:28;96884.99;;;20.91;56.11
52653;BME280;39353;42.864;12.014;2023-11-21T00:33:55;96886.89;;;20.90;55.93
52653;BME280;39353;42.864;12.014;2023-11-21T00:36:22;96880.78;;;20.90;55.96
52653;BME280;39353;42.864;12.014;2023-11-21T00:38:48;96873.56;;;20.90;56.11
52653;BME280;39353;42.864;12.014;2023-11-21T00:41:15;96869.78;;;20.88;56.11
52653;BME280;39353;42.864;12.014;2023-11-21T00:43:42;96864.33;;;20.88;56.04
52653;BME280;39353;42.864;12.014;2023-11-21T00:46:08;96869.05;;;20.88;56.07
52653;BME280;39353;42.864;12.014;2023-11-21T00:48:35;96864.54;;;20.88;55.86
52653;BME280;39353;42.864;12.014;2023-11-21T00:51:03;96861.79;;;20.87;55.91
52653;BME280;39353;42.864;12.014;2023-11-21T00:53:30;96857.57;;;20.86;55.95
52653;BME280;39353;42.864;12.014;2023-11-21T00:55:57;96852.42;;;20.85;56.11
52653;BME280;39353;42.864;12.014;2023-11-21T00:58:24;96857.16;;;20.85;56.06
52653;BME280;39353;42.864;12.014;2023-11-21T01:00:52;96854.39;;;20.86;56.05
52653;BME280;39353;42.864;12.014;2023-11-21T01:03:23;96851.93;;;20.85;56.08
52653;BME280;39353;42.864;12.014;2023-11-21T01:05:51;96845.77;;;20.85;56.00
52653;BME280;39353;42.864;12.014;2023-11-21T01:08:18;96848.68;;;20.84;56.02
52653;BME280;39353;42.864;12.014;2023-11-21T01:10:45;96849.16;;;20.83;56.08
52653;BME280;39353;42.864;12.014;2023-11-21T01:13:12;96840.04;;;20.83;55.97
52653;BME280;39353;42.864;12.014;2023-11-21T01:15:38;96840.20;;;20.82;56.08
52653;BME280;39353;42.864;12.014;2023-11-21T01:18:05;96834.20;;;20.82;55.88
52653;BME280;39353;42.864;12.014;2023-11-21T01:20:32;96830.92;;;20.82;56.04
52653;BME280;39353;42.864;12.014;2023-11-21T01:22:59;96827.81;;;20.82;56.04
52653;BME280;39353;42.864;12.014;2023-11-21T01:25:27;96823.02;;;20.81;56.09
52653;BME280;39353;42.864;12.014;2023-11-21T01:27:54;96808.92;;;20.81;56.03
52653;BME280;39353;42.864;12.014;2023-11-21T01:30:21;96793.33;;;20.81;55.98
52653;BME280;39353;42.864;12.014;2023-11-21T01:32:48;96792.02;;;20.81;56.05
52653;BME280;39353;42.864;12.014;2023-11-21T01:35:15;96785.58;;;20.80;55.98
52653;BME280;39353;42.864;12.014;2023-11-21T01:37:41;96776.89;;;20.79;56.00
52653;BME280;39353;42.864;12.014;2023-11-21T01:40:09;96769.75;;;20.79;56.02
52653;BME280;39353;42.864;12.014;2023-11-21T01:42:37;96769.90;;;20.78;55.93
52653;BME280;39353;42.864;12.014;2023-11-21T01:45:04;96763.03;;;20.78;55.87
52653;BME280;39353;42.864;12.014;2023-11-21T01:47:34;96762.44;;;20.78;55.87
52653;BME280;39353;42.864;12.014;2023-11-21T01:50:03;96758.33;;;20.78;55.92
52653;BME280;39353;42.864;12.014;2023-11-21T01:52:35;96750.96;;;20.77;55.81
52653;BME280;39353;42.864;12.014;2023-11-21T01:55:04;96763.06;;;20.77;55.85
52653;BME280;39353;42.864;12.014;2023-11-21T01:57:33;96789.27;;;20.77;55.97
52653;BME280;39353;42.864;12.014;2023-11-21T02:00:02;96786.63;;;20.76;56.07
52653;BME280;39353;42.864;12.014;2023-11-21T02:02:38;96787.88;;;20.76;56.06
52653;BME280;39353;42.864;12.014;2023-11-21T02:05:06;96808.73;;;20.76;56.09
52653;BME280;39353;42.864;12.014;2023-11-21T02:07:35;96820.48;;;20.77;56.12
52653;BME280;39353;42.864;12.014;2023-11-21T02:10:02;96817.14;;;20.76;56.09
52653;BME280;39353;42.864;12.014;2023-11-21T02:12:28;96805.16;;;20.76;56.20
52653;BME280;39353;42.864;12.014;2023-11-21T02:14:55;96802.86;;;20.75;56.15
52653;BME280;39353;42.864;12.014;2023-11-21T02:17:22;96792.43;;;20.75;55.98
52653;BME280;39353;42.864;12.014;2023-11-21T02:19:49;96804.15;;;20.74;56.09
52653;BME280;39353;42.864;12.014;2023-11-21T02:22:19;96810.12;;;20.73;56.06
52653;BME280;39353;42.864;12.014;2023-11-21T02:24:46;96804.23;;;20.73;56.05
52653;BME280;39353;42.864;12.014;2023-11-21T02:27:13;96809.14;;;20.71;56.12
52653;BME280;39353;42.864;12.014;2023-11-21T02:29:41;96796.88;;;20.71;56.20
52653;BME280;39353;42.864;12.014;2023-11-21T02:32:08;96787.77;;;20.71;56.09
52653;BME280;39353;42.864;12.014;2023-11-21T02:34:37;96794.95;;;20.70;56.02
52653;BME280;39353;42.864;12.014;2023-11-21T02:37:04;96785.85;;;20.71;56.11
52653;BME280;39353;42.864;12.014;2023-11-21T02:39:32;96790.05;;;20.70;56.11
52653;BME280;39353;42.864;12.014;2023-11-21T02:41:59;96778.41;;;20.69;56.06
52653;BME280;39353;42.864;12.014;2023-11-21T02:44:26;96774.03;;;20.68;56.17
52653;BME280;39353;42.864;12.014;2023-11-21T02:46:53;96779.34;;;20.69;56.06
52653;BME280;39353;42.864;12.014;2023-11-21T02:49:20;96781.61;;;20.68;56.10
52653;BME280;39353;42.864;12.014;2023-11-21T02:51:46;96778.71;;;20.68;56.17
52653;BME280;39353;42.864;12.014;2023-11-21T02:54:13;96767.17;;;20.69;56.06
52653;BME280;39353;42.864;12.014;2023-11-21T02:56:40;96762.59;;;20.68;56.02
52653;BME280;39353;42.864;12.014;2023-11-21T02:59:07;96765.29;;;20.67;56.04
52653;BME280;39353;42.864;12.014;2023-11-21T03:01:33;96762.22;;;20.67;56.14
52653;BME280;39353;42.864;12.014;2023-11-21T03:04:00;96761.52;;;20.66;56.07
52653;BME280;39353;42.864;12.014;2023-11-21T03:06:28;96758.56;;;20.67;56.20
52653;BME280;39353;42.864;12.014;2023-11-21T03:08:54;96752.39;;;20.66;56.19
52653;BME280;39353;42.864;12.014;2023-11-21T03:11:21;96747.70;;;20.65;56.10
52653;BME280;39353;42.864;12.014;2023-11-21T03:13:48;96734.73;;;20.65;56.02
52653;BME280;39353;42.864;12.014;2023-11-21T03:16:16;96735.73;;;20.64;56.14
52653;BME280;39353;42.864;12.014;2023-11-21T03:18:43;96742.46;;;20.64;56.09
52653;BME280;39353;42.864;12.014;2023-11-21T03:21:11;96734.09;;;20.63;56.17
52653;BME280;39353;42.864;12.014;2023-11-21T03:23:38;96743.19;;;20.63;56.11
52653;BME280;39353;42.864;12.014;2023-11-21T03:26:06;96746.55;;;20.62;56.23
52653;BME280;39353;42.864;12.014;2023-11-21T03:28:36;96746.27;;;20.62;56.10
52653;BME280;39353;42.864;12.014;2023-11-21T03:31:03;96748.09;;;20.60;56.12
52653;BME280;39353;42.864;12.014;2023-11-21T03:33:30;96747.13;;;20.61;56.33
52653;BME280;39353;42.864;12.014;2023-11-21T03:35:57;96742.93;;;20.61;56.19
52653;BME280;39353;42.864;12.014;2023-11-21T03:38:23;96749.51;;;20.60;56.19
52653;BME280;39353;42.864;12.014;2023-11-21T03:40:50;96749.79;;;20.60;56.10
52653;BME280;39353;42.864;12.014;2023-11-21T03:43:17;96753.98;;;20.60;56.09
52653;BME280;39353;42.864;12.014;2023-11-21T03:45:44;96749.63;;;20.60;56.19
52653;BME280;39353;42.864;12.014;2023-11-21T03:48:12;96744.28;;;20.60;56.13
52653;BME280;39353;42.864;12.014;2023-11-21T03:50:39;96741.21;;;20.59;56.15
52653;BME280;39353;42.864;12.014;2023-11-21T03:53:07;96730.09;;;20.60;56.12
52653;BME280;39353;42.864;12.014;2023-11-21T03:55:34;96736.47;;;20.59;56.05
52653;BME280;39353;42.864;12.014;2023-11-21T03:58:00;96741.54;;;20.60;56.04
52653;BME280;39353;42.864;12.014;2023-11-21T04:00:27;96739.83;;;20.59;56.03
52653;BME280;39353;42.864;12.014;2023-11-21T04:02:54;96738.11;;;20.57;56.06
52653;BME280;39353;42.864;12.014;2023-11-21T04:05:21;96736.75;;;20.58;56.07
52653;BME280;39353;42.864;12.014;2023-11-21T04:07:49;96741.60;;;20.57;56.24
52653;BME280;39353;42.864;12.014;2023-11-21T04:10:17;96735.55;;;20.57;56.14
52653;BME280;39353;42.864;12.014;2023-11-21T04:12:45;96720.01;;;20.57;56.18
52653;BME280;39353;42.864;12.014;2023-11-21T04:15:12;96725.50;;;20.56;56.25
52653;BME280;39353;42.864;12.014;2023-11-21T04:17:41;96722.21;;;20.56;56.30
52653;BME280;39353;42.864;12.014;2023-11-21T04:20:09;96714.52;;;20.56;56.17
52653;BME280;39353;42.864;12.014;2023-11-21T04:22:40;96713.78;;;20.56;56.17
52653;BME280;39353;42.864;12.014;2023-11-21T04:25:11;96708.42;;;20.55;56.17
52653;BME280;39353;42.864;12.014;2023-11-21T04:27:39;96714.54;;;20.56;56.15
52653;BME280;39353;42.864;12.014;2023-11-21T04:30:07;96721.77;;;20.56;56.20
52653;BME280;39353;42.864;12.014;2023-11-21T04:32:36;96724.61;;;20.55;56.21
52653;BME280;39353;42.864;12.014;2023-11-21T04:35:04;96717.02;;;20.55;56.05
52653;BME280;39353;42.864;12.014;2023-11-21T04:37:31;96715.93;;;20.55;56.16
52653;BME280;39353;42.864;12.014;2023-11-21T04:39:57;96711.09;;;20.55;56.09
52653;BME280;39353;42.864;12.014;2023-11-21T04:42:24;96721.81;;;20.55;56.15
52653;BME280;39353;42.864;12.014;2023-11-21T04:44:51;96726.71;;;20.54;56.04
52653;BME280;39353;42.864;12.014;2023-11-21T04:47:19;96735.23;;;20.55;56.12
52653;BME280;39353;42.864;12.014;2023-11-21T04:49:46;96732.96;;;20.53;56.31
52653;BME280;39353;42.864;12.014;2023-11-21T04:52:16;96729.85;;;20.53;56.08
52653;BME280;39353;42.864;12.014;2023-11-21T04:54:42;96730.67;;;20.53;56.18
52653;BME280;39353;42.864;12.014;2023-11-21T04:57:09;96732.09;;;20.54;56.21
52653;BME280;39353;42.864;12.014;2023-11-21T04:59:36;96732.36;;;20.53;56.21
52653;BME280;39353;42.864;12.014;2023-11-21T05:02:04;96732.69;;;20.52;56.12
52653;BME280;39353;42.864;12.014;2023-11-21T05:04:31;96729.46;;;20.52;56.14
52653;BME280;39353;42.864;12.014;2023-11-21T05:06:58;96732.33;;;20.51;56.25
52653;BME280;39353;42.864;12.014;2023-11-21T05:09:27;96729.23;;;20.51;56.11
52653;BME280;39353;42.864;12.014;2023-11-21T05:11:54;96727.70;;;20.51;56.33
52653;BME280;39353;42.864;12.014;2023-11-21T05:14:22;96726.60;;;20.50;56.25
52653;BME280;39353;42.864;12.014;2023-11-21T05:16:48;96729.77;;;20.51;56.23
52653;BME280;39353;42.864;12.014;2023-11-21T05:19:17;96727.36;;;20.50;56.30
52653;BME280;39353;42.864;12.014;2023-11-21T05:21:44;96728.45;;;20.50;56.36
52653;BME280;39353;42.864;12.014;2023-11-21T05:24:11;96725.08;;;20.51;56.22
52653;BME280;39353;42.864;12.014;2023-11-21T05:26:37;96723.52;;;20.49;56.23
52653;BME280;39353;42.864;12.014;2023-11-21T05:29:05;96714.59;;;20.49;56.28
52653;BME280;39353;42.864;12.014;2023-11-21T05:31:32;96712.58;;;20.49;56.22
52653;BME280;39353;42.864;12.014;2023-11-21T05:33:58;96709.10;;;20.50;56.13
52653;BME280;39353;42.864;12.014;2023-11-21T05:36:25;96704.72;;;20.49;56.23
52653;BME280;39353;42.864;12.014;2023-11-21T05:38:52;96700.45;;;20.48;56.18
52653;BME280;39353;42.864;12.014;2023-11-21T05:41:19;96691.95;;;20.48;56.28
52653;BME280;39353;42.864;12.014;2023-11-21T05:43:45;96686.98;;;20.47;56.26
52653;BME280;39353;42.864;12.014;2023-11-21T05:46:12;96693.07;;;20.47;56.32
52653;BME280;39353;42.864;12.014;2023-11-21T05:48:39;96697.38;;;20.47;56.25
52653;BME280;39353;42.864;12.014;2023-11-21T05:51:06;96695.73;;;20.47;56.25
52653;BME280;39353;42.864;12.014;2023-11-21T05:53:34;96691.12;;;20.48;56.21
52653;BME280;39353;42.864;12.014;2023-11-21T05:56:01;96683.67;;;20.46;56.19
52653;BME280;39353;42.864;12.014;2023-11-21T05:58:30;96682.26;;;20.46;56.04
52653;BME280;39353;42.864;12.014;2023-11-21T06:00:57;96681.43;;;20.46;56.16
52653;BME280;39353;42.864;12.014;2023-11-21T06:03:24;96682.95;;;20.45;56.21
52653;BME280;39353;42.864;12.014;2023-11-21T06:05:54;96681.36;;;20.45;56.35
52653;BME280;39353;42.864;12.014;2023-11-21T06:08:21;96677.86;;;20.44;56.23
52653;BME280;39353;42.864;12.014;2023-11-21T06:10:48;96672.89;;;20.44;56.37
52653;BME280;39353;42.864;12.014;2023-11-21T06:13:16;96669.61;;;20.43;56.34
52653;BME280;39353;42.864;12.014;2023-11-21T06:15:42;96668.52;;;20.43;56.22
52653;BME280;39353;42.864;12.014;2023-11-21T06:18:09;96672.05;;;20.43;56.14
52653;BME280;39353;42.864;12.014;2023-11-21T06:20:37;96674.69;;;20.44;56.29
52653;BME280;39353;42.864;12.014;2023-11-21T06:23:04;96674.35;;;20.43;56.29
52653;BME280;39353;42.864;12.014;2023-11-21T06:25:31;96673.08;;;20.42;56.26
52653;BME280;39353;42.864;12.014;2023-11-21T06:28:02;96672.20;;;20.42;56.24
52653;BME280;39353;42.864;12.014;2023-11-21T06:30:29;96669.48;;;20.42;56.21
52653;BME280;39353;42.864;12.014;2023-11-21T06:32:55;96664.46;;;20.42;56.36
52653;BME280;39353;42.864;12.014;2023-11-21T06:35:22;96661.35;;;20.42;56.33
52653;BME280;39353;42.864;12.014;2023-11-21T06:37:49;96662.93;;;20.42;56.28
52653;BME280;39353;42.864;12.014;2023-11-21T06:40:18;96652.52;;;20.41;56.35
52653;BME280;39353;42.864;12.014;2023-11-21T06:42:45;96655.57;;;20.42;56.21
52653;BME280;39353;42.864;12.014;2023-11-21T06:45:13;96650.21;;;20.41;56.26
52653;BME280;39353;42.864;12.014;2023-11-21T06:47:41;96647.52;;;20.42;56.40
52653;BME280;39353;42.864;12.014;2023-11-21T06:50:08;96643.80;;;20.41;56.43
52653;BME280;39353;42.864;12.014;2023-11-21T06:52:35;96643.89;;;20.41;56.38
52653;BME280;39353;42.864;12.014;2023-11-21T06:55:03;96643.55;;;20.39;56.32
52653;BME280;39353;42.864;12.014;2023-11-21T06:57:31;96647.54;;;20.39;56.39
52653;BME280;39353;42.864;12.014;2023-11-21T06:59:59;96640.71;;;20.40;56.40
52653;BME280;39353;42.864;12.014;2023-11-21T07:02:26;96637.02;;;20.40;56.34
52653;BME280;39353;42.864;12.014;2023-11-21T07:04:54;96647.09;;;20.42;56.29
52653;BME280;39353;42.864;12.014;2023-11-21T07:07:21;96650.36;;;20.42;56.02
52653;BME280;39353;42.864;12.014;2023-11-21T07:09:47;96652.75;;;20.42;56.27
52653;BME280;39353;42.864;12.014;2023-11-21T07:12:15;96657.73;;;20.43;56.30
52653;BME280;39353;42.864;12.014;2023-11-21T07:14:42;96655.27;;;20.42;56.53
52653;BME280;39353;42.864;12.014;2023-11-21T07:17:11;96655.21;;;20.43;56.59
52653;BME280;39353;42.864;12.014;2023-11-21T07:19:39;96660.42;;;20.44;56.46
52653;BME280;39353;42.864;12.014;2023-11-21T07:22:06;96663.05;;;20.45;56.48
52653;BME280;39353;42.864;12.014;2023-11-21T07:24:32;96664.42;;;20.45;56.44
52653;BME280;39353;42.864;12.014;2023-11-21T07:26:59;96658.63;;;20.45;56.56
52653;BME280;39353;42.864;12.014;2023-11-21T07:29:27;96652.48;;;20.45;56.67
52653;BME280;39353;42.864;12.014;2023-11-21T07:31:56;96645.21;;;20.44;56.67
52653;BME280;39353;42.864;12.014;2023-11-21T07:34:22;96647.65;;;20.43;56.72
52653;BME280;39353;42.864;12.014;2023-11-21T07:36:49;96641.66;;;20.43;56.25
52653;BME280;39353;42.864;12.014;2023-11-21T07:39:16;96640.38;;;20.42;56.42
52653;BME280;39353;42.864;12.014;2023-11-21T07:41:43;96642.16;;;20.44;56.57
52653;BME280;39353;42.864;12.014;2023-11-21T07:44:16;96637.93;;;20.45;56.70
52653;BME280;39353;42.864;12.014;2023-11-21T07:46:43;96641.91;;;20.45;56.51
52653;BME280;39353;42.864;12.014;2023-11-21T07:49:11;96635.80;;;20.45;56.60
52653;BME280;39353;42.864;12.014;2023-11-21T07:51:38;96635.86;;;20.45;56.60
52653;BME280;39353;42.864;12.014;2023-11-21T07:54:05;96633.10;;;20.46;56.62
52653;BME280;39353;42.864;12.014;2023-11-21T07:56:32;96631.80;;;20.46;56.55
52653;BME280;39353;42.864;12.014;2023-11-21T07:58:58;96629.56;;;20.46;56.62
52653;BME280;39353;42.864;12.014;2023-11-21T08:01:25;96629.77;;;20.46;56.50
52653;BME280;39353;42.864;12.014;2023-11-21T08:03:54;96628.33;;;20.47;56.46
52653;BME280;39353;42.864;12.014;2023-11-21T08:06:23;96623.63;;;20.47;56.42
52653;BME280;39353;42.864;12.014;2023-11-21T08:08:52;96624.01;;;20.49;56.35
52653;BME280;39353;42.864;12.014;2023-11-21T08:11:19;96620.93;;;20.51;56.49
52653;BME280;39353;42.864;12.014;2023-11-21T08:13:46;96620.20;;;20.54;56.42
52653;BME280;39353;42.864;12.014;2023-11-21T08:16:13;96620.48;;;20.58;56.65
52653;BME280;39353;42.864;12.014;2023-11-21T08:18:40;96619.16;;;20.59;56.70
52653;BME280;39353;42.864;12.014;2023-11-21T08:21:07;96614.91;;;20.59;56.59
52653;BME280;39353;42.864;12.014;2023-11-21T08:23:34;96612.88;;;20.58;56.61
52653;BME280;39353;42.864;12.014;2023-11-21T08:26:02;96608.30;;;20.59;56.56
52653;BME280;39353;42.864;12.014;2023-11-21T08:28:30;96604.94;;;20.59;56.60
52653;BME280;39353;42.864;12.014;2023-11-21T08:30:57;96605.71;;;20.60;56.81
52653;BME280;39353;42.864;12.014;2023-11-21T08:33:24;96602.19;;;20.61;56.82
52653;BME280;39353;42.864;12.014;2023-11-21T08:35:52;96601.34;;;20.62;56.95
52653;BME280;39353;42.864;12.014;2023-11-21T08:38:19;96600.06;;;20.61;56.77
52653;BME280;39353;42.864;12.014;2023-11-21T08:40:46;96596.52;;;20.62;56.59
52653;BME280;39353;42.864;12.014;2023-11-21T08:43:13;96597.08;;;20.62;56.77
52653;BME280;39353;42.864;12.014;2023-11-21T08:45:41;96597.89;;;20.62;56.68
52653;BME280;39353;42.864;12.014;2023-11-21T08:48:08;96602.09;;;20.62;56.87
52653;BME280;39353;42.864;12.014;2023-11-21T08:50:35;96600.33;;;20.61;56.65
52653;BME280;39353;42.864;12.014;2023-11-21T08:53:01;96596.14;;;20.61;56.62
52653;BME280;39353;42.864;12.014;2023-11-21T08:55:28;96595.86;;;20.61;56.58
52653;BME280;39353;42.864;12.014;2023-11-21T08:57:55;96599.18;;;20.60;56.58
52653;BME280;39353;42.864;12.014;2023-11-21T09:00:23;96603.67;;;20.59;56.49
52653;BME280;39353;42.864;12.014;2023-11-21T09:02:50;96600.63;;;20.59;56.60
52653;BME280;39353;42.864;12.014;2023-11-21T09:05:17;96607.36;;;20.61;56.85
52653;BME280;39353;42.864;12.014;2023-11-21T09:07:44;96606.53;;;20.63;56.78
52653;BME280;39353;42.864;12.014;2023-11-21T09:10:13;96602.59;;;20.62;56.48
52653;BME280;39353;42.864;12.014;2023-11-21T09:12:40;96596.73;;;20.61;56.56
52653;BME280;39353;42.864;12.014;2023-11-21T09:15:07;96597.55;;;20.61;56.70
52653;BME280;39353;42.864;12.014;2023-11-21T09:17:36;96597.11;;;20.60;56.59
52653;BME280;39353;42.864;12.014;2023-11-21T09:20:04;96595.85;;;20.60;56.53
52653;BME280;39353;42.864;12.014;2023-11-21T09:22:32;96599.39;;;20.60;56.61
52653;BME280;39353;42.864;12.014;2023-11-21T09:24:59;96596.86;;;20.59;56.57
52653;BME280;39353;42.864;12.014;2023-11-21T09:27:26;96592.21;;;20.58;56.55
52653;BME280;39353;42.864;12.014;2023-11-21T09:29:53;96585.66;;;20.57;56.43
52653;BME280;39353;42.864;12.014;2023-11-21T09:32:20;96577.58;;;20.57;56.36
52653;BME280;39353;42.864;12.014;2023-11-21T09:34:48;96570.80;;;20.56;56.40
52653;BME280;39353;42.864;12.014;2023-11-21T09:37:16;96565.15;;;20.56;56.50
52653;BME280;39353;42.864;12.014;2023-11-21T09:39:43;96557.39;;;20.56;56.44
52653;BME280;39353;42.864;12.014;2023-11-21T09:42:19;96550.85;;;20.56;56.49
52653;BME280;39353;42.864;12.014;2023-11-21T09:47:35;96559.50;;;20.55;56.41
52653;BME280;39353;42.864;12.014;2023-11-21T09:50:06;96557.92;;;20.55;56.33
52653;BME280;39353;42.864;12.014;2023-11-21T09:52:54;96555.23;;;20.54;56.37
52653;BME280;39353;42.864;12.014;2023-11-21T09:55:26;96555.77;;;20.53;56.34
52653;BME280;39353;42.864;12.014;2023-11-21T09:57:56;96550.33;;;20.53;56.35
52653;BME280;39353;42.864;12.014;2023-11-21T10:00:23;96544.88;;;20.53;56.33
52653;BME280;39353;42.864;12.014;2023-11-21T10:02:52;96531.52;;;20.52;56.28
52653;BME280;39353;42.864;12.014;2023-11-21T10:05:19;96529.39;;;20.52;56.33
52653;BME280;39353;42.864;12.014;2023-11-21T10:07:50;96521.86;;;20.52;56.40
52653;BME280;39353;42.864;12.014;2023-11-21T10:10:20;96518.97;;;20.52;56.37
52653;BME280;39353;42.864;12.014;2023-11-21T10:12:55;96518.10;;;20.51;56.41
52653;BME280;39353;42.864;12.014;2023-11-21T10:15:24;96507.80;;;20.51;56.44
52653;BME280;39353;42.864;12.014;2023-11-21T10:17:56;96504.79;;;20.51;56.37
52653;BME280;39353;42.864;12.014;2023-11-21T10:20:24;96500.90;;;20.50;56.47
52653;BME280;39353;42.864;12.014;2023-11-21T10:22:52;96495.17;;;20.49;56.38
52653;BME280;39353;42.864;12.014;2023-11-21T10:25:19;96492.30;;;20.49;56.43
52653;BME280;39353;42.864;12.014;2023-11-21T10:27:48;96482.48;;;20.49;56.34
52653;BME280;39353;42.864;12.014;2023-11-21T10:30:18;96480.13;;;20.49;56.39
52653;BME280;39353;42.864;12.014;2023-11-21T10:32:45;96471.02;;;20.48;56.47
52653;BME280;39353;42.864;12.014;2023-11-21T10:35:11;96466.20;;;20.48;56.24
52653;BME280;39353;42.864;12.014;2023-11-21T10:37:41;96466.00;;;20.48;56.21
52653;BME280;39353;42.864;12.014;2023-11-21T10:40:10;96457.45;;;20.48;56.23
52653;BME280;39353;42.864;12.014;2023-11-21T10:42:39;96451.02;;;20.48;56.21
52653;BME280;39353;42.864;12.014;2023-11-21T10:45:08;96441.05;;;20.48;56.16
52653;BME280;39353;42.864;12.014;2023-11-21T10:47:42;96431.71;;;20.48;56.13
52653;BME280;39353;42.864;12.014;2023-11-21T10:50:10;96432.54;;;20.48;56.12
52653;BME280;39353;42.864;12.014;2023-11-21T10:52:41;96435.37;;;20.48;56.19
52653;BME280;39353;42.864;12.014;2023-11-21T10:55:21;96431.08;;;20.49;56.19
52653;BME280;39353;42.864;12.014;2023-11-21T10:57:58;96425.09;;;20.49;56.26
52653;BME280;39353;42.864;12.014;2023-11-21T11:00:26;96428.42;;;20.50;56.16
52653;BME280;39353;42.864;12.014;2023-11-21T11:02:55;96426.39;;;20.49;56.05
52653;BME280;39353;42.864;12.014;2023-11-21T11:05:23;96421.53;;;20.49;55.90
52653;BME280;39353;42.864;12.014;2023-11-21T11:07:52;96427.15;;;20.49;56.10
52653;BME280;39353;42.864;12.014;2023-11-21T11:10:27;96422.79;;;20.49;55.98
52653;BME280;39353;42.864;12.014;2023-11-21T11:12:57;96417.95;;;20.49;56.04
52653;BME280;39353;42.864;12.014;2023-11-21T11:15:25;96416.10;;;20.50;56.08
52653;BME280;39353;42.864;12.014;2023-11-21T11:17:54;96410.32;;;20.49;55.94
52653;BME280;39353;42.864;12.014;2023-11-21T11:20:36;96406.44;;;20.49;56.02
52653;BME280;39353;42.864;12.014;2023-11-21T11:29:01;96391.45;;;20.48;56.03
52653;BME280;39353;42.864;12.014;2023-11-21T11:37:01;96374.27;;;20.47;55.98
52653;BME280;39353;42.864;12.014;2023-11-21T11:39:35;96365.05;;;20.47;56.10
52653;BME280;39353;42.864;12.014;2023-11-21T11:42:06;96368.48;;;20.47;55.86
52653;BME280;39353;42.864;12.014;2023-11-21T11:47:26;96365.80;;;20.46;55.96
52653;BME280;39353;42.864;12.014;2023-11-21T11:50:00;96360.47;;;20.47;55.76
52653;BME280;39353;42.864;12.014;2023-11-21T11:55:08;96356.00;;;20.46;55.90
52653;BME280;39353;42.864;12.014;2023-11-21T11:57:41;96355.23;;;20.46;55.94
52653;BME280;39353;42.864;12.014;2023-11-21T12:02:48;96349.68;;;20.46;55.96
52653;BME280;39353;42.864;12.014;2023-11-21T12:05:22;96345.91;;;20.46;55.99
52653;BME280;39353;42.864;12.014;2023-11-21T12:07:52;96339.52;;;20.46;55.94
52653;BME280;39353;42.864;12.014;2023-11-21T12:10:24;96339.73;;;20.45;55.94
52653;BME280;39353;42.864;12.014;2023-11-21T12:12:54;96340.29;;;20.45;55.88
52653;BME280;39353;42.864;12.014;2023-11-21T12:15:22;96337.17;;;20.45;55.94
52653;BME280;39353;42.864;12.014;2023-11-21T12:17:50;96332.55;;;20.45;55.77
52653;BME280;39353;42.864;12.014;2023-11-21T12:20:22;96327.60;;;20.46;55.80
52653;BME280;39353;42.864;12.014;2023-11-21T12:22:58;96327.77;;;20.46;55.89
52653;BME280;39353;42.864;12.014;2023-11-21T12:25:29;96330.77;;;20.46;55.98
52653;BME280;39353;42.864;12.014;2023-11-21T12:28:00;96325.36;;;20.46;55.90
52653;BME280;39353;42.864;12.014;2023-11-21T12:30:29;96328.46;;;20.46;55.92
52653;BME280;39353;42.864;12.014;2023-11-21T12:32:59;96323.02;;;20.46;55.90
52653;BME280;39353;42.864;12.014;2023-11-21T12:35:28;96320.84;;;20.46;55.83
52653;BME280;39353;42.864;12.014;2023-11-21T12:37:57;96321.48;;;20.45;55.93
52653;BME280;39353;42.864;12.014;2023-11-21T12:40:24;96316.00;;;20.46;55.87
52653;BME280;39353;42.864;12.014;2023-11-21T12:42:54;96312.76;;;20.44;55.80
52653;BME280;39353;42.864;12.014;2023-11-21T12:45:25;96310.90;;;20.44;55.83
52653;BME280;39353;42.864;12.014;2023-11-21T12:48:00;96307.67;;;20.44;55.82
52653;BME280;39353;42.864;12.014;2023-11-21T12:50:31;96306.75;;;20.44;55.76
52653;BME280;39353;42.864;12.014;2023-11-21T12:53:05;96305.27;;;20.44;55.89
52653;BME280;39353;42.864;12.014;2023-11-21T12:55:34;96306.07;;;20.45;55.84
52653;BME280;39353;42.864;12.014;2023-11-21T12:58:07;96300.34;;;20.45;55.86
52653;BME280;39353;42.864;12.014;2023-11-21T13:00:46;96297.62;;;20.45;55.80
52653;BME280;39353;42.864;12.014;2023-11-21T13:03:14;96292.27;;;20.44;55.83
52653;BME280;39353;42.864;12.014;2023-11-21T13:05:48;96290.46;;;20.44;55.89
52653;BME280;39353;42.864;12.014;2023-11-21T13:08:23;96284.47;;;20.44;55.96
52653;BME280;39353;42.864;12.014;2023-11-21T13:10:55;96284.30;;;20.44;55.96
52653;BME280;39353;42.864;12.014;2023-11-21T13:13:23;96280.98;;;20.43;55.89
52653;BME280;39353;42.864;12.014;2023-11-21T13:15:54;96275.66;;;20.42;55.84
52653;BME280;39353;42.864;12.014;2023-11-21T13:18:25;96273.98;;;20.42;55.90